West Leisenring, PA (15489)

9:37 AM EDT on September 22, 2014 (GMT -0400)
Dunbar | Change Station
CLOSE
Current Station
Personal Weather Station
Location: Dunbar, PA
Elevation: 1056 ft
Nearby Weather Stations

Elev 1056 ft 40.00 °N, 79.69 °W | Updated 39 seconds ago

Overcast
Overcast
55.4 °F
Feels Like 55.4 °F
N
4.5
Wind Variable Wind from NW
Gusts 7.6 mph

Today
High -- | Low -- °F
--% Chance of Precip.
Yesterday
High -- | Low -- °F
Precip. -- in
7:06 AM 7:15 PM
Waning Crescent, 3% visible
Pressure 30.11 in
Visibility 10.0 miles
Clouds Scattered Clouds 1300 ft
Overcast 2000 ft
Dew Point 45 °F
Humidity 68%
Rainfall 0.00 in
Snow Depth Not available.
UV 0 out of 12
Pollen 3.50 out of 12
Air Quality Not available.
Flu Activity Not available.
METAR KMGW 221253Z 34005KT 10SM SCT013 OVC020 12/08 A3012 RMK AO2 RAB1157E06 SLP195 P0000 T01220078

More Conditions Fewer Conditions

Pressure 30.11 in
Visibility 10.0 miles
Clouds Scattered Clouds 1300 ft
Overcast 2000 ft
Dew Point 45 °F
Humidity 68%
Rainfall 0.00 in
Snow Depth Not available.
UV 0 out of 12
Pollen 3.50 out of 12
Air Quality Not available.
Flu Activity Not available.
METAR KMGW 221253Z 34005KT 10SM SCT013 OVC020 12/08 A3012 RMK AO2 RAB1157E06 SLP195 P0000 T01220078

More Conditions Fewer Conditions

10-Day Weather Forecast

Almanac

Astronomy

Sep. 22, 2014 Rise Set
Actual Time 7:06 AM EDT 7:15 PM EDT
Civil Twilight 6:39 AM EDT 7:42 PM EDT
Nautical Twilight 6:07 AM EDT 8:14 PM EDT
Astronomical Twilight 5:35 AM EDT 8:46 PM EDT
Moon 5:33 AM EDT 6:22 PM EDT
Length of Visible Light 13h 03m
Length of Day
12h 09m
Tomorrow will be 2m 36s shorter.
Waning Crescent, 3% of the Moon is Illuminated
Today
Waning Crescent
Sep 24
New
Oct 1
First Quarter
Oct 8
Full
Oct 15
Last Quarter

Today's Extremes

State Highs State Lows

Community

WunderPhotos

Upload Photos

1,755,429 photos uploaded!

WunderBlogs® & News

Nearby

Snow Depth

Station Depth Elevation
No new snow has been reported.

Earthquake Activity

City Distance Mag. Time & Date
No recent earthquake activity has been reported nearby.
Minimum magnitude displayed is 2.5.

Coastal Water Temperatures

Place Temperature
No Stations Reporting

Nearby Weather Stations